createdAt,value
2019-05-22T00:00:52.785Z,99.47
2019-05-22T00:01:52.762Z,99.57
2019-05-22T00:02:52.764Z,99.57
2019-05-22T00:03:52.780Z,99.47
2019-05-22T00:04:52.746Z,99.37
2019-05-22T00:05:52.728Z,99.37
2019-05-22T00:06:52.734Z,99.37
2019-05-22T00:07:52.706Z,99.37
2019-05-22T00:08:52.714Z,99.37
2019-05-22T00:09:52.675Z,99.47
2019-05-22T00:10:52.659Z,99.47
2019-05-22T00:11:52.656Z,99.47
2019-05-22T00:12:52.646Z,99.47
2019-05-22T00:13:52.652Z,99.57
2019-05-22T00:14:52.627Z,99.57
2019-05-22T00:15:52.617Z,99.78
2019-05-22T00:16:52.620Z,99.68
2019-05-22T00:17:52.613Z,99.82
2019-05-22T00:18:52.617Z,99.88
2019-05-22T00:19:52.572Z,99.88
2019-05-22T00:20:52.570Z,99.98
2019-05-22T00:21:52.544Z,99.88
2019-05-22T00:22:52.558Z,99.88
2019-05-22T00:23:52.546Z,99.88
2019-05-22T00:24:52.518Z,99.88
2019-05-22T00:25:52.505Z,99.88
2019-05-22T00:26:52.499Z,99.78
2019-05-22T00:27:52.470Z,99.78
2019-05-22T00:28:52.513Z,99.78
2019-05-22T00:29:52.458Z,99.68
2019-05-22T00:30:52.442Z,99.68
2019-05-22T00:31:52.450Z,99.62
2019-05-22T00:32:52.442Z,99.62
2019-05-22T00:33:52.454Z,99.62
2019-05-22T00:34:52.415Z,99.72
2019-05-22T00:35:52.410Z,99.72
2019-05-22T00:36:52.379Z,99.82
2019-05-22T00:37:52.371Z,99.93
2019-05-22T00:38:52.394Z,99.93
2019-05-22T00:39:52.359Z,99.93
2019-05-22T00:40:52.373Z,99.93
2019-05-22T00:41:52.333Z,99.93
2019-05-22T00:43:03.339Z,99.82
2019-05-22T00:43:53.308Z,99.82
2019-05-22T00:44:52.305Z,99.72
2019-05-22T00:45:52.309Z,99.62
2019-05-22T00:46:52.286Z,99.31
2019-05-22T00:47:52.275Z,99.52
2019-05-22T00:48:52.295Z,99.52
2019-05-22T00:49:52.254Z,99.52
2019-05-22T00:50:52.239Z,99.52
2019-05-22T00:51:52.220Z,99.31
2019-05-22T00:52:52.232Z,99.31
2019-05-22T00:53:52.207Z,99.31
2019-05-22T00:54:52.206Z,99.31
2019-05-22T00:55:52.191Z,99.41
2019-05-22T00:56:52.176Z,99.52
2019-05-22T00:57:52.164Z,99.62
2019-05-22T00:58:52.169Z,99.62
2019-05-22T00:59:52.165Z,99.62
2019-05-22T01:00:52.127Z,99.62
2019-05-22T01:01:52.116Z,99.52
2019-05-22T01:02:52.112Z,99.52
2019-05-22T01:03:52.095Z,99.41
2019-05-22T01:04:52.123Z,99.31
2019-05-22T01:05:52.081Z,99.31
2019-05-22T01:06:52.071Z,99.31
2019-05-22T01:07:52.045Z,99.41
2019-05-22T01:08:52.049Z,99.41
2019-05-22T01:09:52.058Z,99.41
2019-05-22T01:10:52.017Z,99.41
2019-05-22T01:11:52.014Z,99.41
2019-05-22T01:12:52.005Z,99.41
2019-05-22T01:13:51.980Z,99.31
2019-05-22T01:14:52.022Z,99.41
2019-05-22T01:15:51.956Z,99.31
2019-05-22T01:16:51.988Z,99.01
2019-05-22T01:17:51.955Z,98.90
2019-05-22T01:18:51.925Z,98.90
2019-05-22T01:19:51.968Z,99.01
2019-05-22T01:20:51.919Z,98.95
2019-05-22T01:21:51.910Z,99.05
2019-05-22T01:22:51.893Z,99.05
2019-05-22T01:23:51.872Z,99.05
2019-05-22T01:24:51.877Z,99.01
2019-05-22T01:25:51.888Z,99.11
2019-05-22T01:26:51.864Z,99.11
2019-05-22T01:27:51.841Z,99.11
2019-05-22T01:28:51.828Z,99.11
2019-05-22T01:29:51.811Z,99.21
2019-05-22T01:30:51.842Z,99.21
2019-05-22T01:31:51.777Z,99.11
2019-05-22T01:32:51.786Z,99.21
2019-05-22T01:33:51.766Z,99.11
2019-05-22T01:34:51.758Z,99.11
2019-05-22T01:35:51.768Z,99.01
2019-05-22T01:36:51.740Z,99.01
2019-05-22T01:37:51.727Z,99.11
2019-05-22T01:38:51.724Z,99.11
2019-05-22T01:39:51.701Z,99.11
2019-05-22T01:40:51.711Z,99.01
2019-05-22T01:41:51.683Z,99.01
2019-05-22T01:42:51.671Z,98.90
2019-05-22T01:43:51.664Z,98.65
2019-05-22T01:45:03.231Z,98.33
2019-05-22T01:45:52.671Z,98.44
2019-05-22T01:46:51.637Z,98.54
2019-05-22T01:47:51.610Z,98.65
2019-05-22T01:48:51.608Z,98.85
2019-05-22T01:49:51.606Z,98.65
2019-05-22T01:50:51.612Z,98.74
2019-05-22T01:51:51.573Z,98.74
2019-05-22T01:52:51.596Z,98.74
2019-05-22T01:53:51.556Z,98.85
2019-05-22T01:54:51.558Z,98.95
2019-05-22T01:55:51.593Z,98.85
2019-05-22T01:56:51.586Z,98.85
2019-05-22T01:57:51.499Z,98.95
2019-05-22T01:58:51.488Z,99.05
2019-05-22T01:59:51.470Z,99.15
2019-05-22T02:00:51.508Z,99.05
2019-05-22T02:01:51.464Z,99.15
2019-05-22T02:02:51.460Z,99.15
2019-05-22T02:03:51.468Z,99.05
2019-05-22T02:04:51.433Z,99.05
2019-05-22T02:05:51.457Z,99.15
2019-05-22T02:06:51.416Z,99.15
2019-05-22T02:07:51.401Z,99.05
2019-05-22T02:08:51.402Z,98.90
2019-05-22T02:09:51.379Z,98.99
2019-05-22T02:10:51.368Z,99.20
2019-05-22T02:11:51.357Z,99.26
2019-05-22T02:12:51.338Z,99.15
2019-05-22T02:13:51.329Z,98.99
2019-05-22T02:14:51.331Z,98.90
2019-05-22T02:15:51.329Z,98.69
2019-05-22T02:16:56.945Z,98.58
2019-05-22T02:17:52.291Z,98.58
2019-05-22T02:18:51.275Z,98.58
2019-05-22T02:19:51.275Z,98.58
2019-05-22T02:20:51.296Z,98.49
2019-05-22T02:21:51.243Z,98.58
2019-05-22T02:22:51.231Z,98.69
2019-05-22T02:23:51.258Z,98.69
2019-05-22T02:24:51.222Z,98.69
2019-05-22T02:25:51.225Z,98.79
2019-05-22T02:26:51.176Z,98.69
2019-05-22T02:27:51.481Z,98.79
2019-05-22T02:28:51.175Z,98.69
2019-05-22T02:29:51.148Z,98.69
2019-05-22T02:30:51.179Z,98.79
2019-05-22T02:31:55.181Z,98.90
2019-05-22T02:32:51.115Z,98.79
2019-05-22T02:33:51.103Z,98.69
2019-05-22T02:34:51.106Z,98.63
2019-05-22T02:35:51.120Z,98.63
2019-05-22T02:36:51.072Z,98.83
2019-05-22T02:37:51.074Z,98.74
2019-05-22T02:38:51.057Z,98.94
2019-05-22T02:39:51.033Z,98.94
2019-05-22T02:40:51.063Z,98.83
2019-05-22T02:41:51.011Z,98.94
2019-05-22T02:42:51.003Z,98.83
2019-05-22T02:43:51.009Z,98.94
2019-05-22T02:44:50.997Z,98.83
2019-05-22T02:45:50.975Z,98.83
2019-05-22T02:46:50.996Z,98.63
2019-05-22T02:47:50.952Z,98.63
2019-05-22T02:48:50.959Z,98.74
2019-05-22T02:49:50.931Z,98.83
2019-05-22T02:50:50.920Z,98.74
2019-05-22T02:51:50.939Z,98.94
2019-05-22T02:52:50.929Z,98.94
2019-05-22T02:53:50.891Z,98.94
2019-05-22T02:54:50.874Z,98.94
2019-05-22T02:55:50.880Z,98.94
2019-05-22T02:56:50.881Z,98.94
2019-05-22T02:57:50.842Z,99.04
2019-05-22T02:58:50.859Z,99.04
2019-05-22T02:59:50.842Z,98.94
2019-05-22T03:00:50.812Z,98.83
2019-05-22T03:01:50.823Z,98.94
2019-05-22T03:02:50.797Z,98.94
2019-05-22T03:03:50.779Z,98.83
2019-05-22T03:04:50.791Z,98.83
2019-05-22T03:05:50.779Z,98.94
2019-05-22T03:06:50.744Z,98.83
2019-05-22T03:07:50.732Z,98.83
2019-05-22T03:08:50.719Z,98.94
2019-05-22T03:09:50.730Z,98.94
2019-05-22T03:10:50.818Z,99.04
2019-05-22T03:11:50.690Z,99.15
2019-05-22T03:12:50.679Z,99.15
2019-05-22T03:13:50.673Z,99.15
2019-05-22T03:14:50.657Z,99.25
2019-05-22T03:15:50.686Z,99.25
2019-05-22T03:16:50.635Z,99.25
2019-05-22T03:17:50.627Z,99.25
2019-05-22T03:19:07.791Z,99.25
2019-05-22T03:19:51.620Z,99.35
2019-05-22T03:20:50.639Z,99.25
2019-05-22T03:21:50.579Z,99.25
2019-05-22T03:22:50.569Z,99.35
2019-05-22T03:23:50.545Z,99.35
2019-05-22T03:24:50.536Z,99.45
2019-05-22T03:25:50.568Z,99.25
2019-05-22T03:26:50.529Z,99.19
2019-05-22T03:27:50.515Z,99.29
2019-05-22T03:28:50.511Z,99.29
2019-05-22T03:29:50.485Z,99.29
2019-05-22T03:30:50.530Z,99.29
2019-05-22T03:31:50.472Z,99.29
2019-05-22T03:32:50.462Z,99.29
2019-05-22T03:33:50.455Z,99.09
2019-05-22T03:34:50.461Z,99.29
2019-05-22T03:35:50.459Z,99.19
2019-05-22T03:36:50.422Z,99.29
2019-05-22T03:37:50.397Z,99.40
2019-05-22T03:38:50.391Z,99.44
2019-05-22T03:39:50.378Z,99.54
2019-05-22T03:40:50.395Z,99.54
2019-05-22T03:41:50.356Z,99.65
2019-05-22T03:42:50.352Z,99.65
2019-05-22T03:43:50.346Z,99.65
2019-05-22T03:44:50.325Z,99.85
2019-05-22T03:45:50.357Z,99.85
2019-05-22T03:46:50.282Z,99.65
2019-05-22T03:47:50.281Z,99.75
2019-05-22T03:48:50.272Z,99.65
2019-05-22T03:49:50.275Z,99.65
2019-05-22T03:50:50.281Z,99.75
2019-05-22T03:51:50.274Z,99.75
2019-05-22T03:52:50.250Z,99.65
2019-05-22T03:53:50.239Z,99.54
2019-05-22T03:54:50.229Z,99.65
2019-05-22T03:55:50.240Z,99.44
2019-05-22T03:56:50.199Z,99.28
2019-05-22T03:57:50.199Z,99.49
2019-05-22T03:58:50.177Z,99.49
2019-05-22T03:59:50.168Z,99.28
2019-05-22T04:00:50.185Z,99.38
2019-05-22T04:01:50.137Z,99.49
2019-05-22T04:02:50.128Z,99.28
2019-05-22T04:03:50.110Z,99.18
2019-05-22T04:04:50.099Z,99.28
2019-05-22T04:05:50.121Z,99.28
2019-05-22T04:06:50.077Z,99.08
2019-05-22T04:07:50.078Z,98.97
2019-05-22T04:08:50.067Z,98.77
2019-05-22T04:09:50.048Z,98.77
2019-05-22T04:10:50.052Z,98.77
2019-05-22T04:11:50.055Z,98.97
2019-05-22T04:12:50.025Z,98.97
2019-05-22T04:13:50.013Z,98.77
2019-05-22T04:14:50.001Z,98.77
2019-05-22T04:15:50.002Z,98.77
2019-05-22T04:16:49.958Z,98.87
2019-05-22T04:17:49.957Z,98.57
2019-05-22T04:18:49.966Z,98.46
2019-05-22T04:19:51.685Z,98.67
2019-05-22T04:20:49.967Z,98.77
2019-05-22T04:21:49.914Z,98.67
2019-05-22T04:22:49.919Z,98.77
2019-05-22T04:23:49.909Z,98.57
2019-05-22T04:24:49.883Z,98.46
2019-05-22T04:25:53.261Z,98.67
2019-05-22T04:26:49.885Z,98.77
2019-05-22T04:27:49.850Z,98.57
2019-05-22T04:28:49.827Z,98.57
2019-05-22T04:29:49.835Z,98.46
2019-05-22T04:30:49.861Z,98.25
2019-05-22T04:31:49.824Z,98.25
2019-05-22T04:32:49.797Z,98.25
2019-05-22T04:33:49.798Z,97.85
2019-05-22T04:34:49.772Z,97.95
2019-05-22T04:35:49.786Z,97.85
2019-05-22T04:36:49.759Z,97.85
2019-05-22T04:37:49.731Z,97.74
2019-05-22T04:38:49.727Z,97.33
2019-05-22T04:39:49.714Z,97.33
2019-05-22T04:40:49.712Z,97.33
2019-05-22T04:41:49.731Z,97.23
2019-05-22T04:42:49.683Z,97.13
2019-05-22T04:43:49.663Z,96.51
2019-05-22T04:44:49.666Z,96.72
2019-05-22T04:45:49.658Z,96.51
2019-05-22T04:46:49.662Z,96.41
2019-05-22T04:47:49.644Z,96.62
2019-05-22T04:48:49.610Z,96.41
2019-05-22T04:50:06.222Z,96.41
2019-05-22T04:50:50.591Z,96.62
2019-05-22T04:51:49.620Z,96.62
2019-05-22T04:52:49.574Z,96.72
2019-05-22T04:53:49.556Z,96.72
2019-05-22T04:54:52.488Z,96.41
2019-05-22T04:55:49.540Z,96.51
2019-05-22T04:56:49.560Z,96.72
2019-05-22T04:57:49.536Z,96.72
2019-05-22T04:58:49.521Z,96.82
2019-05-22T04:59:49.518Z,96.31
2019-05-22T05:00:49.506Z,96.51
2019-05-22T05:01:49.512Z,96.31
2019-05-22T05:02:49.462Z,96.20
2019-05-22T05:03:49.461Z,96.20
2019-05-22T05:04:49.459Z,96.41
2019-05-22T05:05:49.431Z,96.62
2019-05-22T05:06:49.456Z,96.62
2019-05-22T05:07:49.416Z,96.62
2019-05-22T05:08:49.389Z,96.72
2019-05-22T05:09:49.391Z,96.57
2019-05-22T05:10:49.386Z,96.16
2019-05-22T05:11:49.396Z,95.86
2019-05-22T05:12:49.358Z,95.44
2019-05-22T05:13:49.361Z,95.54
2019-05-22T05:14:49.332Z,95.54
2019-05-22T05:15:49.330Z,95.44
2019-05-22T05:16:49.352Z,95.65
2019-05-22T05:17:49.295Z,95.34
2019-05-22T05:18:49.294Z,95.24
2019-05-22T05:19:49.282Z,95.14
2019-05-22T05:20:49.264Z,94.93
2019-05-22T05:21:49.302Z,94.83
2019-05-22T05:22:49.246Z,95.03
2019-05-22T05:23:49.225Z,95.14
2019-05-22T05:24:49.222Z,95.03
2019-05-22T05:25:49.211Z,94.93
2019-05-22T05:26:49.222Z,94.83
2019-05-22T05:27:49.201Z,94.83
2019-05-22T05:28:49.185Z,95.14
2019-05-22T05:29:49.167Z,95.03
2019-05-22T05:30:49.163Z,95.14
2019-05-22T05:31:49.244Z,94.93
2019-05-22T05:32:49.132Z,94.42
2019-05-22T05:33:49.137Z,94.32
2019-05-22T05:34:49.122Z,94.42
2019-05-22T05:35:49.116Z,94.32
2019-05-22T05:36:49.083Z,94.42
2019-05-22T05:37:49.113Z,94.52
2019-05-22T05:38:49.060Z,94.73
2019-05-22T05:39:49.063Z,94.93
2019-05-22T05:40:49.056Z,94.73
2019-05-22T05:41:49.033Z,94.11
2019-05-22T05:42:49.031Z,94.01
2019-05-22T05:43:49.014Z,94.01
2019-05-22T05:44:49.004Z,93.90
2019-05-22T05:45:48.997Z,94.32
2019-05-22T05:46:48.979Z,94.21
2019-05-22T05:47:49.007Z,94.32
2019-05-22T05:48:48.982Z,94.01
2019-05-22T05:49:48.970Z,94.32
2019-05-22T05:50:48.934Z,94.21
2019-05-22T05:51:48.934Z,94.32
2019-05-22T05:52:48.948Z,94.01
2019-05-22T05:53:48.912Z,94.17
2019-05-22T05:54:48.893Z,94.17
2019-05-22T05:55:48.878Z,93.76
2019-05-22T05:56:49.190Z,93.25
2019-05-22T05:57:48.883Z,93.25
2019-05-22T05:58:48.854Z,93.35
2019-05-22T05:59:48.835Z,92.63
2019-05-22T06:00:48.850Z,92.53
2019-05-22T06:01:48.827Z,93.04
2019-05-22T06:02:56.509Z,93.15
2019-05-22T06:03:49.788Z,92.53
2019-05-22T06:04:48.782Z,92.90
2019-05-22T06:05:48.793Z,93.00
2019-05-22T06:06:48.780Z,92.49
2019-05-22T06:07:48.773Z,92.38
2019-05-22T06:08:48.740Z,92.49
2019-05-22T06:09:48.737Z,92.38
2019-05-22T06:10:48.725Z,92.28
2019-05-22T06:11:48.726Z,92.18
2019-05-22T06:12:48.745Z,92.18
2019-05-22T06:13:48.686Z,92.08
2019-05-22T06:14:48.711Z,91.87
2019-05-22T06:15:48.679Z,92.18
2019-05-22T06:16:48.652Z,92.18
2019-05-22T06:17:48.629Z,92.38
2019-05-22T06:18:48.648Z,91.97
2019-05-22T06:19:48.626Z,91.26
2019-05-22T06:21:02.743Z,91.56
2019-05-22T06:21:49.602Z,91.52
2019-05-22T06:22:48.589Z,91.31
2019-05-22T06:23:48.614Z,90.44
2019-05-22T06:24:48.574Z,90.44
2019-05-22T06:25:48.565Z,90.84
2019-05-22T06:26:48.545Z,90.54
2019-05-22T06:27:48.547Z,90.64
2019-05-22T06:28:48.535Z,90.91
2019-05-22T06:29:48.535Z,90.39
2019-05-22T06:30:48.503Z,90.30
2019-05-22T06:31:48.489Z,90.60
2019-05-22T06:32:48.482Z,91.01
2019-05-22T06:33:48.484Z,90.39
2019-05-22T06:34:48.453Z,90.30
2019-05-22T06:35:48.454Z,90.39
2019-05-22T06:36:48.457Z,90.50
2019-05-22T06:37:48.420Z,90.30
2019-05-22T06:38:48.436Z,89.89
2019-05-22T06:39:48.392Z,90.81
2019-05-22T06:40:48.402Z,90.50
2019-05-22T06:41:48.386Z,90.30
2019-05-22T06:42:48.384Z,90.25
2019-05-22T06:43:48.406Z,89.98
2019-05-22T06:44:48.341Z,90.09
2019-05-22T06:45:48.341Z,89.78
2019-05-22T06:46:48.340Z,89.68
2019-05-22T06:47:48.317Z,89.47
2019-05-22T06:48:48.378Z,89.72
2019-05-22T06:49:48.495Z,90.13
2019-05-22T06:50:49.371Z,90.23
2019-05-22T06:51:48.447Z,90.03
2019-05-22T06:52:48.498Z,90.64
2019-05-22T06:53:48.247Z,89.92
2019-05-22T06:54:48.272Z,89.11
2019-05-22T06:55:48.240Z,89.11
2019-05-22T06:56:48.221Z,89.51
2019-05-22T06:57:48.208Z,89.27
2019-05-22T06:58:48.208Z,89.78
2019-05-22T06:59:48.286Z,88.14
2019-05-22T07:00:48.408Z,87.53
2019-05-22T07:01:48.201Z,87.43
2019-05-22T07:02:48.167Z,87.73
2019-05-22T07:03:48.164Z,87.77
2019-05-22T07:04:48.225Z,89.00
2019-05-22T07:05:48.112Z,89.21
2019-05-22T07:06:48.116Z,89.47
2019-05-22T07:07:48.111Z,89.17
2019-05-22T07:08:48.113Z,88.59
2019-05-22T07:09:48.127Z,88.86
2019-05-22T07:10:48.077Z,89.06
2019-05-22T07:11:48.091Z,88.56
2019-05-22T07:12:50.502Z,88.45
2019-05-22T07:13:48.038Z,87.22
2019-05-22T07:14:48.063Z,87.32
2019-05-22T07:15:48.020Z,87.43
2019-05-22T07:16:48.002Z,86.81
2019-05-22T07:17:47.999Z,86.88
2019-05-22T07:18:47.997Z,86.98
2019-05-22T07:19:47.997Z,87.29
2019-05-22T07:20:47.995Z,88.10
2019-05-22T07:21:47.960Z,87.18
2019-05-22T07:22:47.944Z,86.05
2019-05-22T07:23:47.943Z,86.73
2019-05-22T07:24:47.932Z,86.83
2019-05-22T07:25:47.957Z,86.63
2019-05-22T07:26:47.913Z,86.43
2019-05-22T07:27:47.893Z,84.69
2019-05-22T07:28:47.900Z,85.61
2019-05-22T07:29:47.877Z,86.43
2019-05-22T07:30:47.890Z,86.12
2019-05-22T07:31:47.852Z,85.67
2019-05-22T07:32:47.842Z,85.47
2019-05-22T07:33:47.841Z,84.99
2019-05-22T07:34:47.823Z,85.20
2019-05-22T07:36:07.805Z,85.71
2019-05-22T07:36:48.800Z,86.22
2019-05-22T07:37:47.789Z,85.91
2019-05-22T07:38:47.791Z,86.02
2019-05-22T07:39:47.793Z,85.20
2019-05-22T07:40:50.569Z,85.30
2019-05-22T07:41:47.741Z,85.20
2019-05-22T07:42:47.733Z,85.16
2019-05-22T07:43:47.727Z,84.55
2019-05-22T07:44:47.705Z,83.76
2019-05-22T07:45:47.750Z,84.48
2019-05-22T07:46:47.725Z,83.93
2019-05-22T07:47:47.698Z,84.24
2019-05-22T07:48:47.668Z,84.65
2019-05-22T07:49:47.655Z,84.44
2019-05-22T07:50:49.149Z,84.00
2019-05-22T07:51:54.013Z,83.59
2019-05-22T07:52:48.615Z,82.97
2019-05-22T07:53:47.599Z,83.59
2019-05-22T07:54:47.592Z,83.18
2019-05-22T07:55:47.619Z,81.85
2019-05-22T07:56:47.581Z,82.56
2019-05-22T07:57:47.573Z,81.65
2019-05-22T07:58:47.549Z,82.67
2019-05-22T07:59:47.544Z,81.95
2019-05-22T08:00:47.584Z,81.44
2019-05-22T08:01:47.515Z,81.85
2019-05-22T08:02:47.496Z,82.05
2019-05-22T08:03:47.515Z,83.07
2019-05-22T08:04:47.495Z,81.71
2019-05-22T08:05:47.467Z,82.89
2019-05-22T08:06:47.504Z,80.55
2019-05-22T08:07:47.709Z,80.82
2019-05-22T08:08:47.444Z,80.00
2019-05-22T08:09:47.443Z,80.71
2019-05-22T08:10:47.419Z,80.41
2019-05-22T08:11:47.456Z,80.71
2019-05-22T08:12:47.387Z,80.30
2019-05-22T08:13:47.397Z,79.73
2019-05-22T08:14:47.361Z,80.44
2019-05-22T08:15:48.170Z,81.26
2019-05-22T08:16:47.372Z,81.16
2019-05-22T08:17:47.333Z,81.05
2019-05-22T08:18:47.344Z,81.16
2019-05-22T08:19:47.339Z,80.44
2019-05-22T08:20:47.317Z,80.85
2019-05-22T08:21:47.326Z,80.04
2019-05-22T08:22:47.296Z,79.83
2019-05-22T08:23:47.302Z,80.10
2019-05-22T08:24:47.252Z,79.80
2019-05-22T08:25:47.253Z,80.30
2019-05-22T08:26:54.583Z,79.39
2019-05-22T08:27:48.226Z,80.07
2019-05-22T08:28:47.214Z,80.37
2019-05-22T08:29:47.233Z,79.25
2019-05-22T08:30:47.198Z,78.84
2019-05-22T08:31:47.223Z,78.33
2019-05-22T08:32:47.163Z,77.82
2019-05-22T08:33:47.161Z,79.25
2019-05-22T08:34:47.139Z,78.84
2019-05-22T08:35:47.143Z,78.74
2019-05-22T08:36:47.169Z,78.70
2019-05-22T08:37:47.118Z,79.21
2019-05-22T08:38:47.081Z,79.93
2019-05-22T08:39:47.085Z,78.87
2019-05-22T08:40:47.087Z,77.89
2019-05-22T08:41:47.098Z,78.80
2019-05-22T08:42:47.064Z,78.97
2019-05-22T08:44:13.794Z,78.22
2019-05-22T08:44:48.036Z,76.69
2019-05-22T08:45:47.029Z,77.71
2019-05-22T08:46:47.047Z,76.49
2019-05-22T08:47:47.018Z,76.59
2019-05-22T08:48:48.981Z,77.10
2019-05-22T08:49:46.974Z,76.18
2019-05-22T08:50:46.971Z,76.79
2019-05-22T08:51:46.987Z,76.83
2019-05-22T08:52:46.974Z,76.87
2019-05-22T08:53:48.612Z,77.75
2019-05-22T08:54:46.939Z,76.53
2019-05-22T08:55:46.945Z,77.14
2019-05-22T08:56:46.929Z,77.91
2019-05-22T08:57:46.976Z,77.37
2019-05-22T08:58:46.903Z,76.72
2019-05-22T08:59:46.884Z,74.99
2019-05-22T09:00:46.879Z,76.68
2019-05-22T09:01:46.887Z,74.52
2019-05-22T09:02:46.920Z,73.19
2019-05-22T09:03:46.835Z,73.36
2019-05-22T09:04:46.830Z,72.96
2019-05-22T09:05:46.820Z,70.96
2019-05-22T09:06:46.869Z,72.17
2019-05-22T09:07:46.786Z,72.55
2019-05-22T09:08:46.796Z,72.55
2019-05-22T09:09:46.766Z,72.52
2019-05-22T09:10:46.761Z,71.12
2019-05-22T09:11:46.749Z,71.12
2019-05-22T09:12:46.766Z,71.60
2019-05-22T09:13:46.729Z,70.45
2019-05-22T09:14:46.716Z,70.96
2019-05-22T09:15:46.707Z,72.28
2019-05-22T09:16:46.700Z,71.06
2019-05-22T09:17:46.716Z,70.92
2019-05-22T09:18:46.687Z,69.43
2019-05-22T09:19:46.675Z,71.23
2019-05-22T09:20:49.603Z,72.21
2019-05-22T09:21:46.663Z,72.48
2019-05-22T09:22:46.649Z,69.37
2019-05-22T09:23:46.640Z,70.52
2019-05-22T09:24:46.605Z,71.70
2019-05-22T09:25:46.600Z,70.25
2019-05-22T09:26:46.577Z,72.45
2019-05-22T09:27:46.615Z,71.33
2019-05-22T09:28:46.567Z,71.20
2019-05-22T09:29:46.538Z,70.62
2019-05-22T09:30:46.533Z,68.60
2019-05-22T09:31:46.521Z,71.77
2019-05-22T09:32:47.638Z,68.80
2019-05-22T09:33:46.502Z,66.78
2019-05-22T09:34:46.500Z,66.38
2019-05-22T09:35:46.485Z,67.18
2019-05-22T09:36:46.476Z,68.70
2019-05-22T09:37:46.516Z,65.09
2019-05-22T09:38:46.459Z,66.27
2019-05-22T09:39:46.432Z,65.25
2019-05-22T09:40:46.427Z,67.24
2019-05-22T09:41:46.426Z,68.73
2019-05-22T09:42:46.413Z,67.51
2019-05-22T09:43:46.424Z,66.88
2019-05-22T09:44:46.396Z,66.16
2019-05-22T09:45:46.382Z,66.64
2019-05-22T09:46:46.373Z,64.89
2019-05-22T09:47:46.514Z,66.67
2019-05-22T09:48:46.374Z,65.73
2019-05-22T09:49:46.335Z,65.20
2019-05-22T09:50:46.323Z,66.31
2019-05-22T09:51:46.309Z,65.67
2019-05-22T09:52:57.058Z,64.65
2019-05-22T09:53:47.317Z,66.04
2019-05-22T09:54:46.277Z,65.57
2019-05-22T09:55:47.531Z,61.50
2019-05-22T09:56:46.295Z,57.48
2019-05-22T09:57:46.255Z,58.50
2019-05-22T09:58:46.258Z,57.56
2019-05-22T09:59:46.225Z,59.03
2019-05-22T10:00:46.209Z,55.65
2019-05-22T10:01:46.221Z,56.78
2019-05-22T10:02:46.264Z,54.40
2019-05-22T10:03:46.214Z,55.10
2019-05-22T10:04:46.174Z,56.41
2019-05-22T10:05:46.340Z,54.77
2019-05-22T10:06:46.192Z,54.05
2019-05-22T10:07:59.850Z,55.05
2019-05-22T10:08:47.163Z,56.30
2019-05-22T10:09:46.165Z,57.93
2019-05-22T10:10:46.132Z,58.48
2019-05-22T10:11:46.097Z,56.85
2019-05-22T10:12:46.086Z,53.34
2019-05-22T10:13:46.192Z,55.91
2019-05-22T10:14:46.060Z,58.11
2019-05-22T10:15:46.043Z,62.66
2019-05-22T10:16:46.076Z,59.02
2019-05-22T10:17:46.038Z,62.51
2019-05-22T10:18:46.034Z,62.32
2019-05-22T10:19:46.014Z,56.36
2019-05-22T10:20:46.021Z,60.25
2019-05-22T10:21:45.989Z,60.29
2019-05-22T10:22:46.022Z,54.55
2019-05-22T10:23:45.995Z,54.97
2019-05-22T10:24:49.934Z,57.90
2019-05-22T10:25:45.942Z,57.37
2019-05-22T10:26:45.922Z,56.54
2019-05-22T10:27:45.911Z,52.26
2019-05-22T10:28:45.933Z,51.54
2019-05-22T10:29:45.938Z,57.75
2019-05-22T10:30:45.900Z,54.67
2019-05-22T10:31:45.878Z,55.13
2019-05-22T10:32:45.867Z,55.35
2019-05-22T10:33:45.869Z,53.97
2019-05-22T10:34:45.878Z,53.72
2019-05-22T10:35:45.839Z,59.78
2019-05-22T10:36:45.899Z,60.08
2019-05-22T10:37:45.815Z,58.29
2019-05-22T10:38:45.859Z,58.72
2019-05-22T10:39:45.797Z,56.45
2019-05-22T10:40:46.041Z,57.83
2019-05-22T10:41:45.783Z,53.09
2019-05-22T10:42:45.814Z,58.72
2019-05-22T10:43:45.841Z,56.49
2019-05-22T10:44:45.736Z,51.72
2019-05-22T10:45:45.736Z,54.00
2019-05-22T10:46:45.726Z,55.75
2019-05-22T10:47:45.727Z,58.89
2019-05-22T10:48:45.697Z,57.18
2019-05-22T10:49:45.779Z,57.53
2019-05-22T10:50:45.712Z,56.05
2019-05-22T10:51:45.670Z,60.69
2019-05-22T10:52:45.648Z,61.18
2019-05-22T10:53:45.654Z,58.50
2019-05-22T10:54:45.675Z,59.22
2019-05-22T10:55:45.633Z,56.73
2019-05-22T10:56:45.612Z,51.89
2019-05-22T10:57:45.659Z,54.90
2019-05-22T10:58:45.604Z,54.55
2019-05-22T10:59:45.601Z,54.70
2019-05-22T11:00:45.564Z,53.20
2019-05-22T11:01:45.573Z,57.73
2019-05-22T11:02:45.571Z,60.03
2019-05-22T11:03:45.519Z,57.54
2019-05-22T11:04:45.564Z,57.62
2019-05-22T11:05:45.547Z,59.56
2019-05-22T11:06:45.507Z,59.44
2019-05-22T11:07:45.558Z,61.16
2019-05-22T11:08:45.489Z,62.24
2019-05-22T11:09:45.689Z,61.53
2019-05-22T11:10:45.561Z,61.54
2019-05-22T11:11:45.453Z,58.22
2019-05-22T11:12:45.438Z,60.47
2019-05-22T11:14:00.040Z,60.67
2019-05-22T11:14:46.463Z,60.29
2019-05-22T11:15:45.412Z,60.05
2019-05-22T11:16:45.406Z,61.90
2019-05-22T11:17:45.390Z,58.54
2019-05-22T11:18:45.404Z,61.44
2019-05-22T11:19:45.406Z,59.41
2019-05-22T11:20:45.395Z,55.24
2019-05-22T11:21:45.353Z,56.72
2019-05-22T11:22:45.336Z,57.75
2019-05-22T11:23:52.093Z,54.05
2019-05-22T11:24:46.339Z,54.80
2019-05-22T11:25:45.302Z,57.26
2019-05-22T11:26:45.302Z,57.83
2019-05-22T11:27:45.301Z,57.48
2019-05-22T11:28:45.271Z,54.35
2019-05-22T11:29:45.275Z,54.12
2019-05-22T11:30:45.268Z,58.80
2019-05-22T11:31:45.243Z,48.37
2019-05-22T11:32:45.249Z,53.02
2019-05-22T11:33:45.244Z,54.10
2019-05-22T11:34:45.233Z,53.00
2019-05-22T11:35:45.264Z,57.28
2019-05-22T11:36:45.203Z,54.47
2019-05-22T11:37:45.179Z,57.02
2019-05-22T11:38:45.173Z,53.24
2019-05-22T11:39:45.247Z,58.15
2019-05-22T11:40:45.199Z,51.14
2019-05-22T11:41:45.144Z,49.49
2019-05-22T11:42:45.162Z,55.20
2019-05-22T11:43:45.135Z,53.92
2019-05-22T11:44:45.114Z,53.64
2019-05-22T11:45:45.679Z,58.42
2019-05-22T11:46:45.095Z,57.54
2019-05-22T11:47:45.098Z,53.32
2019-05-22T11:48:45.086Z,56.66
2019-05-22T11:49:45.065Z,57.57
2019-05-22T11:50:45.078Z,59.34
2019-05-22T11:51:45.026Z,62.19
2019-05-22T11:52:45.019Z,63.43
2019-05-22T11:53:45.011Z,62.15
2019-05-22T11:54:45.033Z,65.05
2019-05-22T11:55:46.297Z,64.11
2019-05-22T11:56:44.976Z,65.19
2019-05-22T11:57:44.964Z,65.93
2019-05-22T11:58:44.965Z,61.67
2019-05-22T11:59:44.960Z,64.29
2019-05-22T12:00:44.977Z,63.65
2019-05-22T12:01:45.103Z,61.87
2019-05-22T12:02:44.913Z,66.13
2019-05-22T12:03:44.895Z,61.53
2019-05-22T12:04:48.480Z,62.64
2019-05-22T12:05:44.919Z,64.89
2019-05-22T12:06:44.871Z,63.31
2019-05-22T12:07:44.863Z,62.41
2019-05-22T12:08:44.896Z,58.38
2019-05-22T12:09:44.833Z,60.22
2019-05-22T12:10:44.931Z,61.13
2019-05-22T12:11:44.874Z,63.95
2019-05-22T12:12:44.837Z,64.92
2019-05-22T12:13:44.916Z,68.15
2019-05-22T12:14:44.785Z,65.93
2019-05-22T12:15:44.806Z,66.63
2019-05-22T12:16:44.794Z,65.50
2019-05-22T12:17:44.827Z,65.70
2019-05-22T12:18:44.747Z,60.47
2019-05-22T12:19:44.886Z,61.67
2019-05-22T12:20:44.905Z,65.80
2019-05-22T12:21:44.708Z,60.27
2019-05-22T12:22:44.711Z,62.88
2019-05-22T12:23:44.671Z,64.19
2019-05-22T12:24:44.657Z,62.27
2019-05-22T12:25:44.670Z,61.07
2019-05-22T12:26:44.683Z,62.54
2019-05-22T12:27:44.643Z,60.25
2019-05-22T12:28:44.668Z,64.69
2019-05-22T12:29:44.628Z,65.56
2019-05-22T12:30:44.638Z,63.47
2019-05-22T12:31:44.685Z,65.16
2019-05-22T12:32:44.599Z,66.77
2019-05-22T12:33:44.567Z,65.26
2019-05-22T12:34:44.570Z,62.64
2019-05-22T12:35:44.559Z,64.12
2019-05-22T12:36:44.566Z,60.87
2019-05-22T12:37:44.541Z,58.75
2019-05-22T12:38:44.523Z,65.70
2019-05-22T12:39:44.493Z,63.08
2019-05-22T12:40:44.503Z,65.42
2019-05-22T12:41:44.529Z,63.62
2019-05-22T12:42:44.496Z,60.32
2019-05-22T12:43:45.137Z,62.84
2019-05-22T12:44:44.474Z,63.37
2019-05-22T12:45:44.451Z,64.98
2019-05-22T12:46:44.463Z,61.76
2019-05-22T12:47:44.473Z,64.18
2019-05-22T12:48:44.417Z,63.24
2019-05-22T12:49:44.423Z,66.77
2019-05-22T12:50:44.398Z,63.14
2019-05-22T12:51:44.419Z,63.92
2019-05-22T12:52:44.387Z,62.51